sensor_id;sensor_type;location;lat;lon;timestamp;pressure;altitude;pressure_sealevel;temperature;humidity
54546;BME280;40444;45.184;9.850;2022-12-18T00:00:05;102044.75;;;4.74;100.00
54546;BME280;40444;45.184;9.850;2022-12-18T00:02:40;102044.88;;;4.71;100.00
54546;BME280;40444;45.184;9.850;2022-12-18T00:05:08;102044.66;;;4.76;100.00
54546;BME280;40444;45.184;9.850;2022-12-18T00:07:37;102039.34;;;4.76;100.00
54546;BME280;40444;45.184;9.850;2022-12-18T00:10:06;102049.88;;;4.79;100.00
54546;BME280;40444;45.184;9.850;2022-12-18T00:12:34;102041.81;;;4.80;100.00
54546;BME280;40444;45.184;9.850;2022-12-18T00:15:03;102044.28;;;4.85;100.00
54546;BME280;40444;45.184;9.850;2022-12-18T00:17:32;102054.03;;;4.85;100.00
54546;BME280;40444;45.184;9.850;2022-12-18T00:20:00;102049.66;;;4.84;100.00
54546;BME280;40444;45.184;9.850;2022-12-18T00:22:28;102050.31;;;4.89;100.00
54546;BME280;40444;45.184;9.850;2022-12-18T00:24:56;102060.88;;;4.90;100.00
54546;BME280;40444;45.184;9.850;2022-12-18T00:27:25;102055.38;;;4.95;100.00
54546;BME280;40444;45.184;9.850;2022-12-18T00:29:53;102056.09;;;4.98;100.00
54546;BME280;40444;45.184;9.850;2022-12-18T00:32:21;102053.38;;;5.00;100.00
54546;BME280;40444;45.184;9.850;2022-12-18T00:34:50;102056.78;;;5.03;100.00
54546;BME280;40444;45.184;9.850;2022-12-18T00:37:19;102061.09;;;5.06;100.00
54546;BME280;40444;45.184;9.850;2022-12-18T00:39:50;102063.09;;;5.01;100.00
54546;BME280;40444;45.184;9.850;2022-12-18T00:42:20;102067.34;;;5.05;100.00
54546;BME280;40444;45.184;9.850;2022-12-18T00:45:07;102073.19;;;4.93;100.00
54546;BME280;40444;45.184;9.850;2022-12-18T00:47:39;102083.59;;;4.97;100.00
54546;BME280;40444;45.184;9.850;2022-12-18T00:50:08;102082.56;;;5.01;100.00
54546;BME280;40444;45.184;9.850;2022-12-18T00:52:40;102092.31;;;5.01;100.00
54546;BME280;40444;45.184;9.850;2022-12-18T00:55:09;102093.09;;;5.03;100.00
54546;BME280;40444;45.184;9.850;2022-12-18T00:57:38;102102.78;;;5.04;100.00
54546;BME280;40444;45.184;9.850;2022-12-18T01:00:09;102102.94;;;5.01;100.00
54546;BME280;40444;45.184;9.850;2022-12-18T01:02:39;102102.88;;;5.02;100.00
54546;BME280;40444;45.184;9.850;2022-12-18T01:05:09;102108.09;;;5.04;100.00
54546;BME280;40444;45.184;9.850;2022-12-18T01:07:38;102122.00;;;5.11;100.00
54546;BME280;40444;45.184;9.850;2022-12-18T01:10:07;102121.19;;;5.08;100.00
54546;BME280;40444;45.184;9.850;2022-12-18T01:12:37;102127.41;;;5.09;100.00
54546;BME280;40444;45.184;9.850;2022-12-18T01:15:06;102131.91;;;5.07;100.00
54546;BME280;40444;45.184;9.850;2022-12-18T01:17:35;102137.13;;;5.08;100.00
54546;BME280;40444;45.184;9.850;2022-12-18T01:20:03;102152.97;;;5.12;100.00
54546;BME280;40444;45.184;9.850;2022-12-18T01:22:34;102161.84;;;5.11;100.00
54546;BME280;40444;45.184;9.850;2022-12-18T01:25:04;102161.94;;;5.09;100.00
54546;BME280;40444;45.184;9.850;2022-12-18T01:27:33;102162.84;;;5.08;100.00
54546;BME280;40444;45.184;9.850;2022-12-18T01:30:04;102161.94;;;5.09;100.00
54546;BME280;40444;45.184;9.850;2022-12-18T01:32:32;102168.31;;;5.05;100.00
54546;BME280;40444;45.184;9.850;2022-12-18T01:35:02;102170.81;;;5.08;100.00
54546;BME280;40444;45.184;9.850;2022-12-18T01:37:30;102173.47;;;5.08;100.00
54546;BME280;40444;45.184;9.850;2022-12-18T01:39:58;102174.31;;;5.08;100.00
54546;BME280;40444;45.184;9.850;2022-12-18T01:42:27;102183.97;;;5.11;100.00
54546;BME280;40444;45.184;9.850;2022-12-18T01:45:04;102176.97;;;5.08;100.00
54546;BME280;40444;45.184;9.850;2022-12-18T01:50:32;102189.38;;;5.10;100.00
54546;BME280;40444;45.184;9.850;2022-12-18T01:53:10;102200.38;;;5.00;100.00
54546;BME280;40444;45.184;9.850;2022-12-18T01:55:46;102193.06;;;5.05;100.00
54546;BME280;40444;45.184;9.850;2022-12-18T01:58:17;102186.75;;;5.08;100.00
54546;BME280;40444;45.184;9.850;2022-12-18T02:00:46;102197.38;;;5.08;100.00
54546;BME280;40444;45.184;9.850;2022-12-18T02:03:15;102194.69;;;5.10;100.00
54546;BME280;40444;45.184;9.850;2022-12-18T02:05:49;102205.22;;;5.11;100.00
54546;BME280;40444;45.184;9.850;2022-12-18T02:11:06;102208.75;;;5.12;100.00
54546;BME280;40444;45.184;9.850;2022-12-18T02:13:53;102206.91;;;5.14;100.00
54546;BME280;40444;45.184;9.850;2022-12-18T02:18:59;102204.28;;;5.12;100.00
54546;BME280;40444;45.184;9.850;2022-12-18T02:21:47;102206.53;;;5.01;100.00
54546;BME280;40444;45.184;9.850;2022-12-18T02:27:21;102224.28;;;5.00;100.00
54546;BME280;40444;45.184;9.850;2022-12-18T02:29:51;102221.47;;;5.03;100.00
54546;BME280;40444;45.184;9.850;2022-12-18T02:32:31;102218.78;;;5.05;100.00
54546;BME280;40444;45.184;9.850;2022-12-18T02:35:04;102211.72;;;5.04;100.00
54546;BME280;40444;45.184;9.850;2022-12-18T02:37:35;102214.19;;;5.08;100.00
54546;BME280;40444;45.184;9.850;2022-12-18T02:40:07;102218.63;;;5.08;100.00
54546;BME280;40444;45.184;9.850;2022-12-18T02:42:37;102221.38;;;5.06;100.00
54546;BME280;40444;45.184;9.850;2022-12-18T02:45:08;102227.66;;;5.04;100.00
54546;BME280;40444;45.184;9.850;2022-12-18T02:47:39;102238.44;;;5.01;100.00
54546;BME280;40444;45.184;9.850;2022-12-18T02:50:38;102234.16;;;4.97;100.00
54546;BME280;40444;45.184;9.850;2022-12-18T02:53:14;102237.19;;;4.88;100.00
54546;BME280;40444;45.184;9.850;2022-12-18T02:56:41;102239.84;;;4.88;100.00
54546;BME280;40444;45.184;9.850;2022-12-18T02:59:08;102239.09;;;4.84;100.00
54546;BME280;40444;45.184;9.850;2022-12-18T03:02:26;102244.13;;;4.68;100.00
54546;BME280;40444;45.184;9.850;2022-12-18T03:05:02;102233.22;;;4.76;100.00
54546;BME280;40444;45.184;9.850;2022-12-18T03:08:06;102235.97;;;4.73;100.00
54546;BME280;40444;45.184;9.850;2022-12-18T03:10:44;102243.81;;;4.76;100.00
54546;BME280;40444;45.184;9.850;2022-12-18T03:13:24;102241.09;;;4.55;100.00
54546;BME280;40444;45.184;9.850;2022-12-18T03:15:55;102236.47;;;4.61;100.00
54546;BME280;40444;45.184;9.850;2022-12-18T03:18:30;102238.81;;;4.68;100.00
54546;BME280;40444;45.184;9.850;2022-12-18T03:21:05;102233.28;;;4.74;100.00
54546;BME280;40444;45.184;9.850;2022-12-18T03:23:43;102238.59;;;4.74;100.00
54546;BME280;40444;45.184;9.850;2022-12-18T03:26:15;102253.88;;;4.68;100.00
54546;BME280;40444;45.184;9.850;2022-12-18T03:28:54;102266.47;;;4.63;100.00
54546;BME280;40444;45.184;9.850;2022-12-18T03:31:29;102268.16;;;4.65;100.00
54546;BME280;40444;45.184;9.850;2022-12-18T03:34:01;102268.00;;;4.68;100.00
54546;BME280;40444;45.184;9.850;2022-12-18T03:36:40;102258.69;;;4.58;100.00
54546;BME280;40444;45.184;9.850;2022-12-18T03:39:08;102254.75;;;4.68;100.00
54546;BME280;40444;45.184;9.850;2022-12-18T03:44:44;102271.25;;;4.76;100.00
54546;BME280;40444;45.184;9.850;2022-12-18T03:47:43;102269.34;;;4.80;100.00
54546;BME280;40444;45.184;9.850;2022-12-18T03:50:16;102266.59;;;4.83;100.00
54546;BME280;40444;45.184;9.850;2022-12-18T03:55:20;102267.44;;;4.84;100.00
54546;BME280;40444;45.184;9.850;2022-12-18T03:57:56;102273.69;;;4.82;100.00
54546;BME280;40444;45.184;9.850;2022-12-18T04:00:33;102284.34;;;4.81;100.00
54546;BME280;40444;45.184;9.850;2022-12-18T04:03:08;102285.09;;;4.85;100.00
54546;BME280;40444;45.184;9.850;2022-12-18T04:05:42;102279.91;;;4.81;100.00
54546;BME280;40444;45.184;9.850;2022-12-18T04:08:13;102287.00;;;4.81;100.00
54546;BME280;40444;45.184;9.850;2022-12-18T16:30:56;102672.28;;;3.57;100.00
54546;BME280;40444;45.184;9.850;2022-12-18T16:33:25;102669.31;;;3.69;100.00
54546;BME280;40444;45.184;9.850;2022-12-18T16:35:54;102669.88;;;3.80;100.00
54546;BME280;40444;45.184;9.850;2022-12-18T16:38:23;102670.50;;;3.90;100.00
54546;BME280;40444;45.184;9.850;2022-12-18T16:40:53;102673.78;;;3.98;100.00
54546;BME280;40444;45.184;9.850;2022-12-18T16:43:40;102675.34;;;4.05;100.00
54546;BME280;40444;45.184;9.850;2022-12-18T16:46:09;102678.72;;;4.10;100.00
54546;BME280;40444;45.184;9.850;2022-12-18T16:48:37;102678.59;;;4.15;100.00
54546;BME280;40444;45.184;9.850;2022-12-18T16:51:05;102683.88;;;4.16;100.00
54546;BME280;40444;45.184;9.850;2022-12-18T16:53:34;102683.81;;;4.18;100.00
54546;BME280;40444;45.184;9.850;2022-12-18T16:56:03;102689.19;;;4.16;100.00
54546;BME280;40444;45.184;9.850;2022-12-18T16:58:33;102690.97;;;4.16;100.00
54546;BME280;40444;45.184;9.850;2022-12-18T17:01:10;102694.50;;;4.15;100.00
54546;BME280;40444;45.184;9.850;2022-12-18T17:03:59;102693.63;;;4.14;100.00
54546;BME280;40444;45.184;9.850;2022-12-18T17:06:31;102700.72;;;4.14;100.00
54546;BME280;40444;45.184;9.850;2022-12-18T17:09:10;102706.91;;;4.14;100.00
54546;BME280;40444;45.184;9.850;2022-12-18T17:11:40;102699.88;;;4.13;100.00
54546;BME280;40444;45.184;9.850;2022-12-18T17:14:13;102697.22;;;4.13;100.00
54546;BME280;40444;45.184;9.850;2022-12-18T17:16:43;102705.22;;;4.12;100.00
54546;BME280;40444;45.184;9.850;2022-12-18T17:19:12;102709.56;;;4.14;100.00
54546;BME280;40444;45.184;9.850;2022-12-18T17:21:48;102707.78;;;4.15;100.00
54546;BME280;40444;45.184;9.850;2022-12-18T17:24:18;102705.09;;;4.16;100.00
54546;BME280;40444;45.184;9.850;2022-12-18T17:26:48;102698.81;;;4.19;100.00
54546;BME280;40444;45.184;9.850;2022-12-18T17:29:19;102712.94;;;4.19;100.00
54546;BME280;40444;45.184;9.850;2022-12-18T17:31:49;102710.28;;;4.19;100.00
54546;BME280;40444;45.184;9.850;2022-12-18T17:34:17;102709.34;;;4.22;100.00
54546;BME280;40444;45.184;9.850;2022-12-18T17:36:47;102718.13;;;4.24;100.00
54546;BME280;40444;45.184;9.850;2022-12-18T17:39:18;102711.84;;;4.26;100.00
54546;BME280;40444;45.184;9.850;2022-12-18T17:41:47;102715.31;;;4.28;100.00
54546;BME280;40444;45.184;9.850;2022-12-18T17:44:16;102712.59;;;4.31;100.00
54546;BME280;40444;45.184;9.850;2022-12-18T17:46:45;102703.69;;;4.34;100.00
54546;BME280;40444;45.184;9.850;2022-12-18T17:49:14;102703.69;;;4.32;100.00
54546;BME280;40444;45.184;9.850;2022-12-18T17:51:42;102703.69;;;4.34;100.00
54546;BME280;40444;45.184;9.850;2022-12-18T17:54:10;102708.94;;;4.36;100.00
54546;BME280;40444;45.184;9.850;2022-12-18T17:56:38;102699.16;;;4.38;100.00
54546;BME280;40444;45.184;9.850;2022-12-18T17:59:08;102693.84;;;4.38;100.00
54546;BME280;40444;45.184;9.850;2022-12-18T18:01:36;102707.13;;;4.36;100.00
54546;BME280;40444;45.184;9.850;2022-12-18T18:04:12;102696.50;;;4.38;100.00
54546;BME280;40444;45.184;9.850;2022-12-18T18:06:41;102699.16;;;4.38;100.00
54546;BME280;40444;45.184;9.850;2022-12-18T18:09:12;102697.44;;;4.35;100.00
54546;BME280;40444;45.184;9.850;2022-12-18T18:11:45;102689.50;;;4.35;100.00
54546;BME280;40444;45.184;9.850;2022-12-18T18:14:33;102692.19;;;4.34;100.00
54546;BME280;40444;45.184;9.850;2022-12-18T18:17:04;102715.22;;;4.33;100.00
54546;BME280;40444;45.184;9.850;2022-12-18T18:19:32;102712.72;;;4.27;100.00
54546;BME280;40444;45.184;9.850;2022-12-18T18:22:01;102712.72;;;4.27;100.00
54546;BME280;40444;45.184;9.850;2022-12-18T18:24:32;102720.75;;;4.25;100.00
54546;BME280;40444;45.184;9.850;2022-12-18T18:27:01;102728.69;;;4.25;100.00
54546;BME280;40444;45.184;9.850;2022-12-18T18:29:31;102719.88;;;4.25;100.00
54546;BME280;40444;45.184;9.850;2022-12-18T18:32:02;102726.06;;;4.24;100.00
54546;BME280;40444;45.184;9.850;2022-12-18T18:34:36;102719.22;;;4.17;100.00
54546;BME280;40444;45.184;9.850;2022-12-18T18:37:05;102730.06;;;4.09;100.00
54546;BME280;40444;45.184;9.850;2022-12-18T18:39:35;102727.44;;;4.08;100.00
54546;BME280;40444;45.184;9.850;2022-12-18T18:42:08;102716.66;;;4.14;100.00
54546;BME280;40444;45.184;9.850;2022-12-18T18:45:14;102724.00;;;4.04;100.00
54546;BME280;40444;45.184;9.850;2022-12-18T18:47:57;102722.22;;;4.04;100.00
54546;BME280;40444;45.184;9.850;2022-12-18T18:50:30;102724.13;;;3.99;100.00
54546;BME280;40444;45.184;9.850;2022-12-18T18:56:32;102718.31;;;3.87;100.00
54546;BME280;40444;45.184;9.850;2022-12-18T18:59:31;102720.94;;;3.87;100.00
54546;BME280;40444;45.184;9.850;2022-12-18T19:02:15;102714.25;;;3.73;100.00
54546;BME280;40444;45.184;9.850;2022-12-18T19:05:00;102723.25;;;3.68;100.00
54546;BME280;40444;45.184;9.850;2022-12-18T19:07:43;102713.59;;;3.65;100.00
54546;BME280;40444;45.184;9.850;2022-12-18T19:10:17;102719.00;;;3.62;100.00
54546;BME280;40444;45.184;9.850;2022-12-18T19:13:01;102710.19;;;3.60;100.00
54546;BME280;40444;45.184;9.850;2022-12-18T19:15:54;102719.75;;;3.66;100.00
54546;BME280;40444;45.184;9.850;2022-12-18T19:18:24;102723.13;;;3.72;100.00
54546;BME280;40444;45.184;9.850;2022-12-18T19:21:05;102725.78;;;3.72;100.00
54546;BME280;40444;45.184;9.850;2022-12-18T19:23:37;102731.75;;;3.79;100.00
54546;BME280;40444;45.184;9.850;2022-12-18T19:26:07;102728.97;;;3.84;100.00
54546;BME280;40444;45.184;9.850;2022-12-18T19:29:06;102729.03;;;3.82;100.00
54546;BME280;40444;45.184;9.850;2022-12-18T19:31:48;102737.03;;;3.80;100.00
54546;BME280;40444;45.184;9.850;2022-12-18T19:34:22;102742.34;;;3.80;100.00
54546;BME280;40444;45.184;9.850;2022-12-18T19:36:51;102732.56;;;3.83;100.00
54546;BME280;40444;45.184;9.850;2022-12-18T19:39:27;102739.53;;;3.87;100.00
54546;BME280;40444;45.184;9.850;2022-12-18T19:42:11;102745.63;;;3.90;100.00
54546;BME280;40444;45.184;9.850;2022-12-18T19:44:57;102739.56;;;3.85;100.00
54546;BME280;40444;45.184;9.850;2022-12-18T19:47:47;102743.78;;;3.92;100.00
54546;BME280;40444;45.184;9.850;2022-12-18T19:50:53;102741.97;;;3.94;100.00
54546;BME280;40444;45.184;9.850;2022-12-18T19:53:35;102742.88;;;3.93;100.00
54546;BME280;40444;45.184;9.850;2022-12-18T19:56:22;102743.78;;;3.92;100.00
54546;BME280;40444;45.184;9.850;2022-12-18T19:59:08;102749.09;;;3.92;100.00
54546;BME280;40444;45.184;9.850;2022-12-18T20:01:54;102745.53;;;3.93;100.00
54546;BME280;40444;45.184;9.850;2022-12-18T20:04:39;102746.31;;;3.97;100.00
54546;BME280;40444;45.184;9.850;2022-12-18T20:07:10;102757.75;;;3.99;100.00
54546;BME280;40444;45.184;9.850;2022-12-18T20:09:57;102756.78;;;4.01;100.00
54546;BME280;40444;45.184;9.850;2022-12-18T20:12:39;102753.25;;;4.02;100.00
54546;BME280;40444;45.184;9.850;2022-12-18T20:15:21;102762.94;;;4.03;100.00
54546;BME280;40444;45.184;9.850;2022-12-18T20:18:03;102771.75;;;4.04;100.00
54546;BME280;40444;45.184;9.850;2022-12-18T20:20:35;102780.59;;;4.04;100.00
54546;BME280;40444;45.184;9.850;2022-12-18T20:23:18;102783.97;;;4.10;100.00
54546;BME280;40444;45.184;9.850;2022-12-18T20:26:00;102781.31;;;4.11;100.00
54546;BME280;40444;45.184;9.850;2022-12-18T20:28:42;102787.38;;;4.15;100.00
54546;BME280;40444;45.184;9.850;2022-12-18T20:31:24;102786.47;;;4.16;100.00
54546;BME280;40444;45.184;9.850;2022-12-18T20:33:55;102801.44;;;4.18;100.00
54546;BME280;40444;45.184;9.850;2022-12-18T20:36:29;102795.19;;;4.21;100.00
54546;BME280;40444;45.184;9.850;2022-12-18T20:38:59;102794.19;;;4.23;100.00
54546;BME280;40444;45.184;9.850;2022-12-18T20:41:41;102778.25;;;4.25;100.00
54546;BME280;40444;45.184;9.850;2022-12-18T20:44:16;102793.22;;;4.27;100.00
54546;BME280;40444;45.184;9.850;2022-12-18T20:46:56;102791.41;;;4.29;100.00
54546;BME280;40444;45.184;9.850;2022-12-18T20:49:42;102786.91;;;4.31;100.00
54546;BME280;40444;45.184;9.850;2022-12-18T20:52:22;102790.47;;;4.30;100.00
54546;BME280;40444;45.184;9.850;2022-12-18T20:55:05;102798.34;;;4.34;100.00
54546;BME280;40444;45.184;9.850;2022-12-18T20:57:48;102803.66;;;4.34;100.00
54546;BME280;40444;45.184;9.850;2022-12-18T21:00:33;102802.09;;;4.26;100.00
54546;BME280;40444;45.184;9.850;2022-12-18T21:03:03;102795.19;;;4.21;100.00
54546;BME280;40444;45.184;9.850;2022-12-18T21:05:40;102801.22;;;4.26;100.00
54546;BME280;40444;45.184;9.850;2022-12-18T21:08:21;102791.69;;;4.19;100.00
54546;BME280;40444;45.184;9.850;2022-12-18T21:10:53;102795.81;;;3.98;100.00
54546;BME280;40444;45.184;9.850;2022-12-18T21:13:29;102792.94;;;4.05;100.00
54546;BME280;40444;45.184;9.850;2022-12-18T21:16:11;102793.91;;;3.69;100.00
54546;BME280;40444;45.184;9.850;2022-12-18T21:18:49;102790.09;;;3.80;100.00
54546;BME280;40444;45.184;9.850;2022-12-18T21:21:27;102786.38;;;3.86;100.00
54546;BME280;40444;45.184;9.850;2022-12-18T21:24:09;102787.75;;;3.68;100.00
54546;BME280;40444;45.184;9.850;2022-12-18T21:26:52;102795.22;;;3.87;100.00
54546;BME280;40444;45.184;9.850;2022-12-18T21:29:35;102783.66;;;3.89;100.00
54546;BME280;40444;45.184;9.850;2022-12-18T21:32:18;102789.72;;;3.93;100.00
54546;BME280;40444;45.184;9.850;2022-12-18T21:34:50;102801.19;;;3.95;100.00
54546;BME280;40444;45.184;9.850;2022-12-18T21:37:34;102808.31;;;3.93;100.00
54546;BME280;40444;45.184;9.850;2022-12-18T21:40:06;102810.81;;;3.99;100.00
54546;BME280;40444;45.184;9.850;2022-12-18T21:42:49;102816.34;;;3.90;100.00
54546;BME280;40444;45.184;9.850;2022-12-18T21:45:49;102820.31;;;3.38;100.00
54546;BME280;40444;45.184;9.850;2022-12-18T21:48:38;102828.78;;;3.52;100.00
54546;BME280;40444;45.184;9.850;2022-12-18T21:51:07;102827.78;;;3.58;100.00
54546;BME280;40444;45.184;9.850;2022-12-18T21:53:36;102830.56;;;3.53;100.00
54546;BME280;40444;45.184;9.850;2022-12-18T21:56:05;102833.22;;;3.53;100.00
54546;BME280;40444;45.184;9.850;2022-12-18T21:58:34;102827.81;;;3.56;100.00
54546;BME280;40444;45.184;9.850;2022-12-18T22:01:17;102835.63;;;3.62;100.00
54546;BME280;40444;45.184;9.850;2022-12-18T22:03:59;102823.19;;;3.64;100.00
54546;BME280;40444;45.184;9.850;2022-12-18T22:06:27;102826.59;;;3.69;100.00
54546;BME280;40444;45.184;9.850;2022-12-18T22:08:55;102824.78;;;3.71;100.00
54546;BME280;40444;45.184;9.850;2022-12-18T22:11:24;102821.59;;;3.57;100.00
54546;BME280;40444;45.184;9.850;2022-12-18T22:13:52;102820.50;;;3.66;100.00
54546;BME280;40444;45.184;9.850;2022-12-18T22:16:21;102813.09;;;3.78;100.00
54546;BME280;40444;45.184;9.850;2022-12-18T22:18:49;102820.91;;;3.85;100.00
54546;BME280;40444;45.184;9.850;2022-12-18T22:21:22;102814.56;;;3.90;100.00
54546;BME280;40444;45.184;9.850;2022-12-18T22:24:00;102809.16;;;3.95;100.00
54546;BME280;40444;45.184;9.850;2022-12-18T22:26:32;102799.31;;;3.98;100.00
54546;BME280;40444;45.184;9.850;2022-12-18T22:29:08;102808.03;;;4.03;100.00
54546;BME280;40444;45.184;9.850;2022-12-18T22:31:58;102805.38;;;4.03;100.00
54546;BME280;40444;45.184;9.850;2022-12-18T22:34:26;102811.56;;;4.04;100.00
54546;BME280;40444;45.184;9.850;2022-12-18T22:36:55;102802.66;;;4.07;100.00
54546;BME280;40444;45.184;9.850;2022-12-18T22:39:26;102806.13;;;4.09;100.00
54546;BME280;40444;45.184;9.850;2022-12-18T22:41:57;102803.53;;;4.07;100.00
54546;BME280;40444;45.184;9.850;2022-12-18T22:44:35;102795.84;;;3.96;100.00
54546;BME280;40444;45.184;9.850;2022-12-18T22:47:03;102801.19;;;3.95;100.00
54546;BME280;40444;45.184;9.850;2022-12-18T22:49:34;102795.00;;;3.94;100.00
54546;BME280;40444;45.184;9.850;2022-12-18T22:52:05;102790.66;;;3.92;100.00
54546;BME280;40444;45.184;9.850;2022-12-18T22:54:49;102798.59;;;3.92;100.00
54546;BME280;40444;45.184;9.850;2022-12-18T22:57:20;102797.91;;;3.85;100.00
54546;BME280;40444;45.184;9.850;2022-12-18T22:59:51;102803.91;;;3.92;100.00
54546;BME280;40444;45.184;9.850;2022-12-18T23:02:20;102795.16;;;3.88;100.00
54546;BME280;40444;45.184;9.850;2022-12-18T23:04:49;102805.78;;;3.88;100.00
54546;BME280;40444;45.184;9.850;2022-12-18T23:07:17;102800.63;;;3.82;100.00
54546;BME280;40444;45.184;9.850;2022-12-18T23:09:49;102806.75;;;3.86;100.00
54546;BME280;40444;45.184;9.850;2022-12-18T23:12:27;102801.25;;;3.92;100.00
54546;BME280;40444;45.184;9.850;2022-12-18T23:14:55;102796.81;;;3.92;100.00
54546;BME280;40444;45.184;9.850;2022-12-18T23:17:24;102797.53;;;3.99;100.00
54546;BME280;40444;45.184;9.850;2022-12-18T23:19:53;102787.81;;;3.99;100.00
54546;BME280;40444;45.184;9.850;2022-12-18T23:22:35;102787.81;;;3.99;100.00
54546;BME280;40444;45.184;9.850;2022-12-18T23:25:14;102788.50;;;4.06;100.00
54546;BME280;40444;45.184;9.850;2022-12-18T23:27:42;102778.66;;;4.10;100.00
54546;BME280;40444;45.184;9.850;2022-12-18T23:30:11;102788.28;;;4.14;100.00
54546;BME280;40444;45.184;9.850;2022-12-18T23:32:39;102787.34;;;4.16;100.00
54546;BME280;40444;45.184;9.850;2022-12-18T23:35:08;102785.50;;;4.18;100.00
54546;BME280;40444;45.184;9.850;2022-12-18T23:37:39;102782.78;;;4.21;100.00
54546;BME280;40444;45.184;9.850;2022-12-18T23:40:28;102791.59;;;4.22;100.00
54546;BME280;40444;45.184;9.850;2022-12-18T23:42:57;102796.03;;;4.21;100.00
54546;BME280;40444;45.184;9.850;2022-12-18T23:45:26;102788.13;;;4.20;100.00
54546;BME280;40444;45.184;9.850;2022-12-18T23:47:55;102788.09;;;4.21;100.00
54546;BME280;40444;45.184;9.850;2022-12-18T23:50:35;102801.34;;;4.21;100.00
54546;BME280;40444;45.184;9.850;2022-12-18T23:53:13;102801.28;;;4.23;100.00
54546;BME280;40444;45.184;9.850;2022-12-18T23:55:42;102807.47;;;4.23;100.00
54546;BME280;40444;45.184;9.850;2022-12-18T23:58:27;102795.19;;;4.19;100.00
